sensor_id;sensor_type;location;lat;lon;timestamp;pressure;altitude;pressure_sealevel;temperature;humidity
27202;BME280;14717;46.924;15.474;2023-06-10T00:02:16;97443.22;;;16.91;100.00
27202;BME280;14717;46.924;15.474;2023-06-10T00:04:42;97425.09;;;16.97;100.00
27202;BME280;14717;46.924;15.474;2023-06-10T00:07:07;97429.59;;;16.90;100.00
27202;BME280;14717;46.924;15.474;2023-06-10T00:09:37;97429.69;;;16.81;100.00
27202;BME280;14717;46.924;15.474;2023-06-10T00:12:07;97427.75;;;16.62;100.00
27202;BME280;14717;46.924;15.474;2023-06-10T00:14:35;97424.91;;;16.50;100.00
27202;BME280;14717;46.924;15.474;2023-06-10T00:17:00;97431.56;;;16.37;100.00
27202;BME280;14717;46.924;15.474;2023-06-10T00:19:25;97422.91;;;16.30;100.00
27202;BME280;14717;46.924;15.474;2023-06-10T00:21:55;97428.69;;;16.25;100.00
27202;BME280;14717;46.924;15.474;2023-06-10T00:24:21;97425.91;;;16.25;100.00
27202;BME280;14717;46.924;15.474;2023-06-10T00:26:47;97423.00;;;16.42;100.00
27202;BME280;14717;46.924;15.474;2023-06-10T00:29:12;97425.72;;;16.50;100.00
27202;BME280;14717;46.924;15.474;2023-06-10T00:31:38;97419.84;;;16.63;100.00
27202;BME280;14717;46.924;15.474;2023-06-10T00:34:04;97417.28;;;16.59;100.00
27202;BME280;14717;46.924;15.474;2023-06-10T00:36:29;97421.63;;;16.27;100.00
27202;BME280;14717;46.924;15.474;2023-06-10T00:38:55;97423.81;;;16.22;100.00
27202;BME280;14717;46.924;15.474;2023-06-10T00:41:20;97425.66;;;16.10;100.00
27202;BME280;14717;46.924;15.474;2023-06-10T00:43:46;97423.22;;;16.08;100.00
27202;BME280;14717;46.924;15.474;2023-06-10T00:46:11;97412.75;;;16.05;100.00
27202;BME280;14717;46.924;15.474;2023-06-10T00:48:38;97412.91;;;16.09;100.00
27202;BME280;14717;46.924;15.474;2023-06-10T00:51:05;97408.53;;;15.99;100.00
27202;BME280;14717;46.924;15.474;2023-06-10T00:53:31;97410.00;;;15.97;100.00
27202;BME280;14717;46.924;15.474;2023-06-10T00:55:57;97409.69;;;15.98;100.00
27202;BME280;14717;46.924;15.474;2023-06-10T00:58:22;97415.06;;;16.03;100.00
27202;BME280;14717;46.924;15.474;2023-06-10T01:00:48;97414.50;;;15.89;100.00
27202;BME280;14717;46.924;15.474;2023-06-10T01:03:15;97424.53;;;15.82;100.00
27202;BME280;14717;46.924;15.474;2023-06-10T01:05:42;97419.50;;;15.75;100.00
27202;BME280;14717;46.924;15.474;2023-06-10T01:10:41;97420.75;;;15.86;100.00
27202;BME280;14717;46.924;15.474;2023-06-10T01:13:10;97422.09;;;15.80;100.00
27202;BME280;14717;46.924;15.474;2023-06-10T01:15:37;97426.56;;;15.73;100.00
27202;BME280;14717;46.924;15.474;2023-06-10T01:18:05;97423.00;;;15.64;100.00
27202;BME280;14717;46.924;15.474;2023-06-10T01:20:34;97423.50;;;15.66;100.00
27202;BME280;14717;46.924;15.474;2023-06-10T01:23:02;97417.81;;;15.83;100.00
27202;BME280;14717;46.924;15.474;2023-06-10T01:25:29;97420.81;;;15.98;100.00
27202;BME280;14717;46.924;15.474;2023-06-10T01:30:39;97425.19;;;15.87;100.00
27202;BME280;14717;46.924;15.474;2023-06-10T01:33:08;97419.00;;;16.02;100.00
27202;BME280;14717;46.924;15.474;2023-06-10T01:35:37;97429.66;;;16.00;100.00
27202;BME280;14717;46.924;15.474;2023-06-10T01:38:03;97429.47;;;16.05;100.00
27202;BME280;14717;46.924;15.474;2023-06-10T01:40:30;97428.56;;;16.21;100.00
27202;BME280;14717;46.924;15.474;2023-06-10T01:42:56;97431.06;;;16.35;100.00
27202;BME280;14717;46.924;15.474;2023-06-10T01:45:21;97423.13;;;16.45;100.00
27202;BME280;14717;46.924;15.474;2023-06-10T01:47:46;97414.94;;;16.61;100.00
27202;BME280;14717;46.924;15.474;2023-06-10T01:50:12;97421.97;;;16.66;100.00
27202;BME280;14717;46.924;15.474;2023-06-10T01:52:37;97421.75;;;16.71;100.00
27202;BME280;14717;46.924;15.474;2023-06-10T01:55:03;97426.88;;;16.69;100.00
27202;BME280;14717;46.924;15.474;2023-06-10T01:57:28;97422.69;;;16.75;100.00
27202;BME280;14717;46.924;15.474;2023-06-10T01:59:53;97423.44;;;16.64;100.00
27202;BME280;14717;46.924;15.474;2023-06-10T02:02:19;97424.69;;;16.55;100.00
27202;BME280;14717;46.924;15.474;2023-06-10T02:04:47;97425.13;;;16.45;100.00
27202;BME280;14717;46.924;15.474;2023-06-10T02:07:12;97421.06;;;16.54;100.00
27202;BME280;14717;46.924;15.474;2023-06-10T02:09:37;97418.16;;;16.51;100.00
27202;BME280;14717;46.924;15.474;2023-06-10T02:12:03;97420.56;;;16.40;100.00
27202;BME280;14717;46.924;15.474;2023-06-10T02:14:29;97432.38;;;16.37;100.00
27202;BME280;14717;46.924;15.474;2023-06-10T02:16:55;97430.75;;;16.36;100.00
27202;BME280;14717;46.924;15.474;2023-06-10T02:19:22;97436.44;;;16.40;100.00
27202;BME280;14717;46.924;15.474;2023-06-10T02:21:47;97432.56;;;16.53;100.00
27202;BME280;14717;46.924;15.474;2023-06-10T02:24:13;97432.38;;;16.58;100.00
27202;BME280;14717;46.924;15.474;2023-06-10T02:26:38;97432.69;;;16.56;100.00
27202;BME280;14717;46.924;15.474;2023-06-10T02:29:03;97439.31;;;16.52;100.00
27202;BME280;14717;46.924;15.474;2023-06-10T02:31:29;97436.63;;;16.43;100.00
27202;BME280;14717;46.924;15.474;2023-06-10T02:33:54;97430.28;;;16.55;100.00
27202;BME280;14717;46.924;15.474;2023-06-10T02:36:21;97431.81;;;16.64;100.00
27202;BME280;14717;46.924;15.474;2023-06-10T02:38:46;97432.22;;;16.74;100.00
27202;BME280;14717;46.924;15.474;2023-06-10T02:41:12;97432.66;;;16.64;100.00
27202;BME280;14717;46.924;15.474;2023-06-10T02:43:37;97433.72;;;16.72;100.00
27202;BME280;14717;46.924;15.474;2023-06-10T02:46:02;97433.53;;;16.57;100.00
27202;BME280;14717;46.924;15.474;2023-06-10T02:48:28;97437.69;;;16.51;100.00
27202;BME280;14717;46.924;15.474;2023-06-10T02:50:53;97440.59;;;16.54;100.00
27202;BME280;14717;46.924;15.474;2023-06-10T02:53:18;97449.66;;;16.71;100.00
27202;BME280;14717;46.924;15.474;2023-06-10T02:55:44;97453.03;;;16.77;100.00
27202;BME280;14717;46.924;15.474;2023-06-10T02:58:09;97459.00;;;16.87;100.00
27202;BME280;14717;46.924;15.474;2023-06-10T03:00:35;97455.88;;;16.89;100.00
27202;BME280;14717;46.924;15.474;2023-06-10T03:03:02;97459.72;;;16.84;100.00
27202;BME280;14717;46.924;15.474;2023-06-10T03:05:32;97459.00;;;16.87;100.00
27202;BME280;14717;46.924;15.474;2023-06-10T03:07:57;97463.78;;;16.87;100.00
27202;BME280;14717;46.924;15.474;2023-06-10T03:10:23;97464.91;;;16.86;100.00
27202;BME280;14717;46.924;15.474;2023-06-10T03:12:48;97465.63;;;16.62;100.00
27202;BME280;14717;46.924;15.474;2023-06-10T03:15:13;97459.25;;;16.62;100.00
27202;BME280;14717;46.924;15.474;2023-06-10T03:17:41;97471.53;;;16.61;100.00
27202;BME280;14717;46.924;15.474;2023-06-10T03:20:06;97462.16;;;16.65;100.00
27202;BME280;14717;46.924;15.474;2023-06-10T03:22:33;97468.34;;;16.71;100.00
27202;BME280;14717;46.924;15.474;2023-06-10T03:24:58;97464.06;;;16.73;100.00
27202;BME280;14717;46.924;15.474;2023-06-10T03:27:24;97478.44;;;16.63;100.00
27202;BME280;14717;46.924;15.474;2023-06-10T03:29:50;97482.56;;;16.58;100.00
27202;BME280;14717;46.924;15.474;2023-06-10T03:32:15;97480.91;;;16.45;100.00
27202;BME280;14717;46.924;15.474;2023-06-10T03:34:40;97498.78;;;16.44;100.00
27202;BME280;14717;46.924;15.474;2023-06-10T03:37:06;97492.41;;;16.35;100.00
27202;BME280;14717;46.924;15.474;2023-06-10T03:39:32;97488.00;;;16.34;100.00
27202;BME280;14717;46.924;15.474;2023-06-10T03:41:57;97490.34;;;16.32;100.00
27202;BME280;14717;46.924;15.474;2023-06-10T03:44:23;97489.63;;;16.35;100.00
27202;BME280;14717;46.924;15.474;2023-06-10T03:46:49;97493.19;;;16.44;100.00
27202;BME280;14717;46.924;15.474;2023-06-10T03:49:14;97479.03;;;16.49;100.00
27202;BME280;14717;46.924;15.474;2023-06-10T03:51:40;97487.41;;;16.49;100.00
27202;BME280;14717;46.924;15.474;2023-06-10T03:54:05;97484.41;;;16.54;100.00
27202;BME280;14717;46.924;15.474;2023-06-10T03:56:31;97484.63;;;16.49;100.00
27202;BME280;14717;46.924;15.474;2023-06-10T03:58:56;97477.53;;;16.51;100.00
27202;BME280;14717;46.924;15.474;2023-06-10T04:01:22;97476.44;;;16.64;100.00
27202;BME280;14717;46.924;15.474;2023-06-10T04:03:48;97479.25;;;16.64;100.00
27202;BME280;14717;46.924;15.474;2023-06-10T04:06:16;97474.44;;;16.73;100.00
27202;BME280;14717;46.924;15.474;2023-06-10T04:08:41;97484.81;;;16.64;100.00
27202;BME280;14717;46.924;15.474;2023-06-10T04:11:06;97484.63;;;16.49;100.00
27202;BME280;14717;46.924;15.474;2023-06-10T04:13:32;97486.66;;;16.60;100.00
27202;BME280;14717;46.924;15.474;2023-06-10T04:15:57;97488.69;;;16.51;100.00
27202;BME280;14717;46.924;15.474;2023-06-10T04:18:22;97491.66;;;16.55;100.00
27202;BME280;14717;46.924;15.474;2023-06-10T04:20:48;97486.81;;;16.63;100.00
27202;BME280;14717;46.924;15.474;2023-06-10T04:23:13;97481.22;;;16.63;100.00
27202;BME280;14717;46.924;15.474;2023-06-10T04:25:38;97487.88;;;16.71;100.00
27202;BME280;14717;46.924;15.474;2023-06-10T04:28:04;97485.91;;;16.71;100.00
27202;BME280;14717;46.924;15.474;2023-06-10T04:30:29;97485.97;;;16.83;100.00
27202;BME280;14717;46.924;15.474;2023-06-10T04:32:56;97487.47;;;16.81;100.00
27202;BME280;14717;46.924;15.474;2023-06-10T04:35:21;97491.16;;;16.73;100.00
27202;BME280;14717;46.924;15.474;2023-06-10T04:37:47;97493.13;;;16.72;100.00
27202;BME280;14717;46.924;15.474;2023-06-10T04:40:12;97494.97;;;16.68;100.00
27202;BME280;14717;46.924;15.474;2023-06-10T04:42:37;97498.78;;;16.84;100.00
27202;BME280;14717;46.924;15.474;2023-06-10T04:45:03;97500.09;;;16.99;100.00
27202;BME280;14717;46.924;15.474;2023-06-10T04:47:29;97501.31;;;17.09;100.00
27202;BME280;14717;46.924;15.474;2023-06-10T04:49:59;97501.44;;;17.13;100.00
27202;BME280;14717;46.924;15.474;2023-06-10T04:52:24;97500.13;;;17.19;100.00
27202;BME280;14717;46.924;15.474;2023-06-10T04:54:49;97503.63;;;17.28;100.00
27202;BME280;14717;46.924;15.474;2023-06-10T04:57:15;97509.22;;;17.28;100.00
27202;BME280;14717;46.924;15.474;2023-06-10T04:59:40;97501.75;;;17.32;100.00
27202;BME280;14717;46.924;15.474;2023-06-10T05:02:05;97496.69;;;17.34;100.00
27202;BME280;14717;46.924;15.474;2023-06-10T05:04:30;97506.44;;;17.40;100.00
27202;BME280;14717;46.924;15.474;2023-06-10T05:06:56;97501.00;;;17.43;100.00
27202;BME280;14717;46.924;15.474;2023-06-10T05:09:21;97508.34;;;17.48;100.00
27202;BME280;14717;46.924;15.474;2023-06-10T05:11:46;97506.84;;;17.50;100.00
27202;BME280;14717;46.924;15.474;2023-06-10T05:14:12;97514.16;;;17.54;100.00
27202;BME280;14717;46.924;15.474;2023-06-10T05:16:37;97506.25;;;17.56;100.00
27202;BME280;14717;46.924;15.474;2023-06-10T05:19:03;97513.25;;;17.62;100.00
27202;BME280;14717;46.924;15.474;2023-06-10T05:21:29;97507.41;;;17.44;100.00
27202;BME280;14717;46.924;15.474;2023-06-10T05:23:54;97512.88;;;17.40;100.00
27202;BME280;14717;46.924;15.474;2023-06-10T05:26:20;97514.16;;;17.43;100.00
27202;BME280;14717;46.924;15.474;2023-06-10T05:28:45;97508.59;;;17.54;100.00
27202;BME280;14717;46.924;15.474;2023-06-10T05:31:10;97514.56;;;17.65;100.00
27202;BME280;14717;46.924;15.474;2023-06-10T05:33:36;97516.97;;;17.66;100.00
27202;BME280;14717;46.924;15.474;2023-06-10T05:36:01;97515.28;;;17.74;100.00
27202;BME280;14717;46.924;15.474;2023-06-10T05:38:27;97523.53;;;17.70;100.00
27202;BME280;14717;46.924;15.474;2023-06-10T05:40:52;97524.22;;;17.67;100.00
27202;BME280;14717;46.924;15.474;2023-06-10T05:43:18;97514.47;;;17.85;100.00
27202;BME280;14717;46.924;15.474;2023-06-10T05:45:43;97522.53;;;17.98;100.00
27202;BME280;14717;46.924;15.474;2023-06-10T05:48:08;97519.03;;;18.01;100.00
27202;BME280;14717;46.924;15.474;2023-06-10T05:50:34;97519.41;;;18.12;100.00
27202;BME280;14717;46.924;15.474;2023-06-10T05:53:04;97520.06;;;18.09;100.00
27202;BME280;14717;46.924;15.474;2023-06-10T05:55:29;97532.91;;;18.10;100.00
27202;BME280;14717;46.924;15.474;2023-06-10T05:58:00;97525.00;;;18.12;100.00
27202;BME280;14717;46.924;15.474;2023-06-10T06:00:26;97519.41;;;18.12;100.00
27202;BME280;14717;46.924;15.474;2023-06-10T06:02:52;97517.22;;;18.29;100.00
27202;BME280;14717;46.924;15.474;2023-06-10T06:05:19;97519.63;;;18.19;100.00
27202;BME280;14717;46.924;15.474;2023-06-10T06:07:45;97519.19;;;18.17;100.00
27202;BME280;14717;46.924;15.474;2023-06-10T06:10:10;97522.44;;;18.19;100.00
27202;BME280;14717;46.924;15.474;2023-06-10T06:12:35;97527.78;;;18.24;100.00
27202;BME280;14717;46.924;15.474;2023-06-10T06:15:01;97525.50;;;18.26;100.00
27202;BME280;14717;46.924;15.474;2023-06-10T06:17:27;97531.91;;;18.14;100.00
27202;BME280;14717;46.924;15.474;2023-06-10T06:19:52;97540.41;;;18.18;100.00
27202;BME280;14717;46.924;15.474;2023-06-10T06:22:17;97532.81;;;18.30;100.00
27202;BME280;14717;46.924;15.474;2023-06-10T06:24:46;97531.06;;;18.49;100.00
27202;BME280;14717;46.924;15.474;2023-06-10T06:27:12;97530.56;;;18.59;100.00
27202;BME280;14717;46.924;15.474;2023-06-10T06:29:37;97539.22;;;18.54;100.00
27202;BME280;14717;46.924;15.474;2023-06-10T06:32:03;97533.28;;;18.44;100.00
27202;BME280;14717;46.924;15.474;2023-06-10T06:34:28;97535.72;;;18.45;100.00
27202;BME280;14717;46.924;15.474;2023-06-10T06:36:53;97533.13;;;18.64;100.00
27202;BME280;14717;46.924;15.474;2023-06-10T06:39:19;97543.31;;;18.57;100.00
27202;BME280;14717;46.924;15.474;2023-06-10T06:41:44;97525.66;;;18.80;100.00
27202;BME280;14717;46.924;15.474;2023-06-10T06:44:10;97534.22;;;18.99;100.00
27202;BME280;14717;46.924;15.474;2023-06-10T06:46:35;97530.59;;;19.10;100.00
27202;BME280;14717;46.924;15.474;2023-06-10T06:49:00;97534.06;;;19.19;100.00
27202;BME280;14717;46.924;15.474;2023-06-10T06:51:26;97525.00;;;19.10;100.00
27202;BME280;14717;46.924;15.474;2023-06-10T06:53:51;97514.69;;;19.14;100.00
27202;BME280;14717;46.924;15.474;2023-06-10T06:56:19;97527.94;;;19.29;100.00
27202;BME280;14717;46.924;15.474;2023-06-10T06:58:46;97529.69;;;19.33;100.00
27202;BME280;14717;46.924;15.474;2023-06-10T07:01:11;97526.28;;;19.40;100.00
27202;BME280;14717;46.924;15.474;2023-06-10T07:03:37;97530.88;;;19.32;100.00
27202;BME280;14717;46.924;15.474;2023-06-10T07:06:02;97521.53;;;19.28;100.00
27202;BME280;14717;46.924;15.474;2023-06-10T07:08:28;97521.53;;;19.28;100.00
27202;BME280;14717;46.924;15.474;2023-06-10T07:10:54;97522.84;;;19.46;100.00
27202;BME280;14717;46.924;15.474;2023-06-10T07:13:19;97522.78;;;19.58;99.47
27202;BME280;14717;46.924;15.474;2023-06-10T07:15:45;97527.94;;;19.56;100.00
27202;BME280;14717;46.924;15.474;2023-06-10T07:18:10;97521.38;;;19.64;100.00
27202;BME280;14717;46.924;15.474;2023-06-10T07:20:36;97525.84;;;19.53;97.75
27202;BME280;14717;46.924;15.474;2023-06-10T07:23:01;97522.78;;;19.58;99.53
27202;BME280;14717;46.924;15.474;2023-06-10T07:25:26;97521.72;;;19.63;99.43
27202;BME280;14717;46.924;15.474;2023-06-10T07:27:52;97521.22;;;19.88;97.57
27202;BME280;14717;46.924;15.474;2023-06-10T07:30:17;97521.13;;;20.00;97.92
27202;BME280;14717;46.924;15.474;2023-06-10T07:32:42;97520.88;;;20.05;98.53
27202;BME280;14717;46.924;15.474;2023-06-10T07:35:09;97523.13;;;20.14;95.81
27202;BME280;14717;46.924;15.474;2023-06-10T07:37:37;97520.06;;;20.19;96.56
27202;BME280;14717;46.924;15.474;2023-06-10T07:40:03;97524.50;;;20.05;97.48
27202;BME280;14717;46.924;15.474;2023-06-10T07:42:29;97527.41;;;20.08;95.12
27202;BME280;14717;46.924;15.474;2023-06-10T07:44:54;97535.66;;;20.02;94.54
27202;BME280;14717;46.924;15.474;2023-06-10T07:47:20;97534.28;;;19.96;93.97
27202;BME280;14717;46.924;15.474;2023-06-10T07:49:45;97528.94;;;20.21;92.47
27202;BME280;14717;46.924;15.474;2023-06-10T07:52:10;97533.03;;;20.39;93.15
27202;BME280;14717;46.924;15.474;2023-06-10T07:54:36;97532.75;;;20.44;92.26
27202;BME280;14717;46.924;15.474;2023-06-10T07:57:01;97543.84;;;20.71;91.78
27202;BME280;14717;46.924;15.474;2023-06-10T07:59:27;97537.59;;;20.78;88.40
27202;BME280;14717;46.924;15.474;2023-06-10T08:01:53;97530.34;;;20.77;89.72
27202;BME280;14717;46.924;15.474;2023-06-10T08:04:18;97528.22;;;20.89;89.68
27202;BME280;14717;46.924;15.474;2023-06-10T08:06:43;97515.75;;;21.05;88.30
27202;BME280;14717;46.924;15.474;2023-06-10T08:09:08;97523.81;;;21.07;88.40
27202;BME280;14717;46.924;15.474;2023-06-10T08:11:34;97524.69;;;21.11;87.38
27202;BME280;14717;46.924;15.474;2023-06-10T08:13:59;97518.06;;;21.19;87.15
27202;BME280;14717;46.924;15.474;2023-06-10T08:16:25;97516.66;;;21.28;86.13
27202;BME280;14717;46.924;15.474;2023-06-10T08:18:50;97520.41;;;21.35;84.93
27202;BME280;14717;46.924;15.474;2023-06-10T08:21:15;97522.56;;;21.42;85.44
27202;BME280;14717;46.924;15.474;2023-06-10T08:23:41;97535.56;;;21.31;85.27
27202;BME280;14717;46.924;15.474;2023-06-10T08:26:06;97532.16;;;21.56;85.50
27202;BME280;14717;46.924;15.474;2023-06-10T08:28:32;97534.34;;;21.66;84.13
27202;BME280;14717;46.924;15.474;2023-06-10T08:30:57;97543.00;;;21.77;83.33
27202;BME280;14717;46.924;15.474;2023-06-10T08:33:22;97531.78;;;21.58;83.08
27202;BME280;14717;46.924;15.474;2023-06-10T08:35:48;97536.84;;;21.71;84.89
27202;BME280;14717;46.924;15.474;2023-06-10T08:38:13;97531.75;;;21.77;82.43
27202;BME280;14717;46.924;15.474;2023-06-10T08:40:39;97533.50;;;21.84;83.18
27202;BME280;14717;46.924;15.474;2023-06-10T08:43:13;97530.94;;;21.98;82.98
27202;BME280;14717;46.924;15.474;2023-06-10T08:45:42;97522.84;;;22.16;82.51
27202;BME280;14717;46.924;15.474;2023-06-10T08:48:09;97533.63;;;22.32;80.28
27202;BME280;14717;46.924;15.474;2023-06-10T08:50:37;97527.50;;;22.53;80.97
27202;BME280;14717;46.924;15.474;2023-06-10T08:53:05;97539.03;;;22.66;78.20
27202;BME280;14717;46.924;15.474;2023-06-10T08:55:42;97534.16;;;22.64;77.10
27202;BME280;14717;46.924;15.474;2023-06-10T08:58:07;97531.00;;;22.68;79.27
27202;BME280;14717;46.924;15.474;2023-06-10T09:00:34;97530.91;;;22.87;78.93
27202;BME280;14717;46.924;15.474;2023-06-10T09:03:02;97531.00;;;22.91;78.11
27202;BME280;14717;46.924;15.474;2023-06-10T09:05:28;97533.16;;;23.01;76.72
27202;BME280;14717;46.924;15.474;2023-06-10T09:07:57;97537.63;;;22.79;76.31
27202;BME280;14717;46.924;15.474;2023-06-10T09:10:23;97540.41;;;23.02;76.34
27202;BME280;14717;46.924;15.474;2023-06-10T09:12:50;97528.31;;;23.01;75.49
27202;BME280;14717;46.924;15.474;2023-06-10T09:15:15;97533.63;;;23.06;75.87
27202;BME280;14717;46.924;15.474;2023-06-10T09:17:43;97531.38;;;23.18;75.50
27202;BME280;14717;46.924;15.474;2023-06-10T09:20:09;97528.63;;;23.22;76.00
27202;BME280;14717;46.924;15.474;2023-06-10T09:22:34;97524.88;;;23.44;75.98
27202;BME280;14717;46.924;15.474;2023-06-10T09:25:09;97531.28;;;23.41;73.85
27202;BME280;14717;46.924;15.474;2023-06-10T09:27:49;97524.22;;;23.53;74.91
27202;BME280;14717;46.924;15.474;2023-06-10T09:32:55;97530.44;;;23.37;71.54
27202;BME280;14717;46.924;15.474;2023-06-10T09:35:24;97528.09;;;23.42;73.76
27202;BME280;14717;46.924;15.474;2023-06-10T09:37:54;97522.59;;;23.56;72.13
27202;BME280;14717;46.924;15.474;2023-06-10T09:40:20;97525.72;;;23.48;72.82
27202;BME280;14717;46.924;15.474;2023-06-10T09:45:20;97516.91;;;23.82;72.25
27202;BME280;14717;46.924;15.474;2023-06-10T09:47:53;97516.41;;;24.09;71.28
27202;BME280;14717;46.924;15.474;2023-06-10T09:50:19;97509.50;;;24.06;71.94
27202;BME280;14717;46.924;15.474;2023-06-10T09:52:46;97507.44;;;24.00;73.37
27202;BME280;14717;46.924;15.474;2023-06-10T09:55:12;97517.59;;;24.08;70.53
27202;BME280;14717;46.924;15.474;2023-06-10T09:57:37;97508.84;;;24.20;68.66
27202;BME280;14717;46.924;15.474;2023-06-10T10:00:10;97510.63;;;24.35;69.86
27202;BME280;14717;46.924;15.474;2023-06-10T10:02:54;97505.34;;;24.30;68.75
27202;BME280;14717;46.924;15.474;2023-06-10T10:05:23;97508.31;;;24.47;68.51
27202;BME280;14717;46.924;15.474;2023-06-10T10:07:48;97516.53;;;24.62;66.56
27202;BME280;14717;46.924;15.474;2023-06-10T10:10:17;97504.47;;;24.72;67.65
27202;BME280;14717;46.924;15.474;2023-06-10T10:12:42;97504.63;;;24.93;68.82
27202;BME280;14717;46.924;15.474;2023-06-10T10:15:09;97495.72;;;24.91;69.39
27202;BME280;14717;46.924;15.474;2023-06-10T10:17:47;97497.75;;;24.94;66.79
27202;BME280;14717;46.924;15.474;2023-06-10T10:20:17;97490.44;;;25.53;63.21
27202;BME280;14717;46.924;15.474;2023-06-10T10:22:46;97492.06;;;25.54;59.98
27202;BME280;14717;46.924;15.474;2023-06-10T10:25:16;97502.50;;;25.40;59.41
27202;BME280;14717;46.924;15.474;2023-06-10T10:27:51;97493.75;;;25.69;62.45
27202;BME280;14717;46.924;15.474;2023-06-10T10:30:20;97496.13;;;25.60;61.04
27202;BME280;14717;46.924;15.474;2023-06-10T10:32:58;97491.00;;;25.05;64.71
27202;BME280;14717;46.924;15.474;2023-06-10T10:35:26;97488.41;;;24.80;64.21
27202;BME280;14717;46.924;15.474;2023-06-10T10:37:52;97485.06;;;25.27;62.41
27202;BME280;14717;46.924;15.474;2023-06-10T10:40:19;97485.06;;;25.24;60.91
27202;BME280;14717;46.924;15.474;2023-06-10T10:42:48;97482.75;;;24.80;61.68
27202;BME280;14717;46.924;15.474;2023-06-10T10:45:13;97480.22;;;24.71;62.83
27202;BME280;14717;46.924;15.474;2023-06-10T10:47:39;97471.75;;;24.71;64.69
27202;BME280;14717;46.924;15.474;2023-06-10T10:50:34;97475.97;;;24.41;64.79
27202;BME280;14717;46.924;15.474;2023-06-10T10:53:01;97471.13;;;24.95;64.97
27202;BME280;14717;46.924;15.474;2023-06-10T10:55:27;97468.84;;;25.14;61.20
27202;BME280;14717;46.924;15.474;2023-06-10T10:57:57;97471.75;;;25.31;61.17
27202;BME280;14717;46.924;15.474;2023-06-10T11:00:30;97469.06;;;25.66;59.85
27202;BME280;14717;46.924;15.474;2023-06-10T11:05:42;97460.59;;;25.66;60.24
27202;BME280;14717;46.924;15.474;2023-06-10T11:08:10;97459.00;;;25.72;62.83
27202;BME280;14717;46.924;15.474;2023-06-10T11:10:39;97464.56;;;25.58;59.90
27202;BME280;14717;46.924;15.474;2023-06-10T11:13:13;97466.06;;;25.25;59.26
27202;BME280;14717;46.924;15.474;2023-06-10T11:15:46;97459.16;;;25.25;61.04
27202;BME280;14717;46.924;15.474;2023-06-10T11:18:20;97453.03;;;25.03;59.66
27202;BME280;14717;46.924;15.474;2023-06-10T11:31:25;97449.59;;;24.73;61.43
27202;BME280;14717;46.924;15.474;2023-06-10T11:34:02;97446.38;;;24.78;61.37
27202;BME280;14717;46.924;15.474;2023-06-10T11:36:37;97443.94;;;24.77;58.34
27202;BME280;14717;46.924;15.474;2023-06-10T11:39:05;97435.91;;;24.82;61.21
27202;BME280;14717;46.924;15.474;2023-06-10T11:41:32;97429.47;;;24.88;60.51
27202;BME280;14717;46.924;15.474;2023-06-10T11:44:04;97427.19;;;25.08;61.23
27202;BME280;14717;46.924;15.474;2023-06-10T11:46:29;97425.53;;;25.03;60.89
27202;BME280;14717;46.924;15.474;2023-06-10T11:48:57;97432.41;;;25.02;62.08
27202;BME280;14717;46.924;15.474;2023-06-10T11:51:27;97428.34;;;25.00;60.51
27202;BME280;14717;46.924;15.474;2023-06-10T11:53:53;97421.53;;;25.11;62.42
27202;BME280;14717;46.924;15.474;2023-06-10T11:56:23;97422.09;;;24.67;59.83
27202;BME280;14717;46.924;15.474;2023-06-10T11:59:03;97416.91;;;24.86;60.16
27202;BME280;14717;46.924;15.474;2023-06-10T12:01:31;97429.94;;;24.34;61.61
27202;BME280;14717;46.924;15.474;2023-06-10T12:06:46;97418.94;;;24.82;62.65
27202;BME280;14717;46.924;15.474;2023-06-10T12:09:26;97417.28;;;24.78;60.52
27202;BME280;14717;46.924;15.474;2023-06-10T12:12:00;97414.22;;;25.00;60.80
27202;BME280;14717;46.924;15.474;2023-06-10T12:14:57;97413.13;;;24.58;62.74
27202;BME280;14717;46.924;15.474;2023-06-10T12:20:12;97414.78;;;24.66;64.25
27202;BME280;14717;46.924;15.474;2023-06-10T12:22:49;97406.59;;;24.43;64.30
27202;BME280;14717;46.924;15.474;2023-06-10T12:25:14;97407.56;;;24.68;63.36
27202;BME280;14717;46.924;15.474;2023-06-10T12:27:50;97406.88;;;24.92;63.63
27202;BME280;14717;46.924;15.474;2023-06-10T12:30:22;97402.91;;;25.00;63.75
27202;BME280;14717;46.924;15.474;2023-06-10T12:32:47;97410.44;;;24.82;62.87
27202;BME280;14717;46.924;15.474;2023-06-10T12:35:17;97405.97;;;24.74;64.54
27202;BME280;14717;46.924;15.474;2023-06-10T12:38:00;97397.69;;;25.12;62.68
27202;BME280;14717;46.924;15.474;2023-06-10T12:40:31;97408.56;;;25.00;61.96
27202;BME280;14717;46.924;15.474;2023-06-10T12:42:58;97406.25;;;25.23;60.85
27202;BME280;14717;46.924;15.474;2023-06-10T12:45:32;97401.41;;;25.37;59.28
27202;BME280;14717;46.924;15.474;2023-06-10T12:48:10;97402.38;;;25.65;61.24
27202;BME280;14717;46.924;15.474;2023-06-10T12:50:38;97397.88;;;25.57;61.62
27202;BME280;14717;46.924;15.474;2023-06-10T12:53:04;97396.50;;;25.17;62.38
27202;BME280;14717;46.924;15.474;2023-06-10T12:55:30;97390.91;;;25.30;62.02
27202;BME280;14717;46.924;15.474;2023-06-10T12:57:55;97403.84;;;25.38;61.81
27202;BME280;14717;46.924;15.474;2023-06-10T13:00:22;97397.78;;;25.29;62.18
27202;BME280;14717;46.924;15.474;2023-06-10T13:02:51;97398.97;;;25.28;62.08
27202;BME280;14717;46.924;15.474;2023-06-10T13:05:18;97398.47;;;25.06;61.00
27202;BME280;14717;46.924;15.474;2023-06-10T13:07:44;97398.78;;;24.94;59.04
27202;BME280;14717;46.924;15.474;2023-06-10T13:10:09;97396.50;;;25.10;59.48
27202;BME280;14717;46.924;15.474;2023-06-10T13:12:35;97388.41;;;25.08;59.89
27202;BME280;14717;46.924;15.474;2023-06-10T13:15:01;97390.47;;;25.22;59.73